sensor_id;sensor_type;location;lat;lon;timestamp;temperature;humidity
52107;DHT22;38105;52.968;5.974;2023-05-10T00:01:48;13.20;99.90
52107;DHT22;38105;52.968;5.974;2023-05-10T00:04:13;13.30;99.90
52107;DHT22;38105;52.968;5.974;2023-05-10T00:06:39;12.80;99.90
52107;DHT22;38105;52.968;5.974;2023-05-10T00:09:05;12.60;99.90
52107;DHT22;38105;52.968;5.974;2023-05-10T00:11:30;13.00;99.90
52107;DHT22;38105;52.968;5.974;2023-05-10T00:13:56;12.60;99.90
52107;DHT22;38105;52.968;5.974;2023-05-10T00:16:22;12.60;99.90
52107;DHT22;38105;52.968;5.974;2023-05-10T00:18:47;13.30;99.90
52107;DHT22;38105;52.968;5.974;2023-05-10T00:21:13;13.30;99.90
52107;DHT22;38105;52.968;5.974;2023-05-10T00:23:39;12.50;99.90
52107;DHT22;38105;52.968;5.974;2023-05-10T00:26:05;13.20;99.90
52107;DHT22;38105;52.968;5.974;2023-05-10T00:28:30;12.40;99.90
52107;DHT22;38105;52.968;5.974;2023-05-10T00:30:56;13.20;99.90
52107;DHT22;38105;52.968;5.974;2023-05-10T00:33:22;12.90;99.90
52107;DHT22;38105;52.968;5.974;2023-05-10T00:35:47;12.40;99.90
52107;DHT22;38105;52.968;5.974;2023-05-10T00:38:13;12.60;99.90
52107;DHT22;38105;52.968;5.974;2023-05-10T00:40:39;13.00;99.90
52107;DHT22;38105;52.968;5.974;2023-05-10T00:43:05;12.90;99.90
52107;DHT22;38105;52.968;5.974;2023-05-10T00:45:33;12.60;99.90
52107;DHT22;38105;52.968;5.974;2023-05-10T00:48:02;12.60;99.90
52107;DHT22;38105;52.968;5.974;2023-05-10T00:50:30;12.50;99.90
52107;DHT22;38105;52.968;5.974;2023-05-10T00:52:56;13.30;99.90
52107;DHT22;38105;52.968;5.974;2023-05-10T00:55:22;12.60;99.90
52107;DHT22;38105;52.968;5.974;2023-05-10T00:57:49;13.00;99.90
52107;DHT22;38105;52.968;5.974;2023-05-10T01:00:15;12.60;99.90
52107;DHT22;38105;52.968;5.974;2023-05-10T01:02:44;13.30;99.90
52107;DHT22;38105;52.968;5.974;2023-05-10T01:05:10;13.30;99.90
52107;DHT22;38105;52.968;5.974;2023-05-10T01:07:36;12.60;99.90
52107;DHT22;38105;52.968;5.974;2023-05-10T01:10:02;12.50;99.90
52107;DHT22;38105;52.968;5.974;2023-05-10T01:12:28;13.00;99.90
52107;DHT22;38105;52.968;5.974;2023-05-10T01:14:54;12.70;99.90
52107;DHT22;38105;52.968;5.974;2023-05-10T01:17:20;13.10;99.90
52107;DHT22;38105;52.968;5.974;2023-05-10T01:19:47;12.70;99.90
52107;DHT22;38105;52.968;5.974;2023-05-10T01:28:03;13.10;99.90
52107;DHT22;38105;52.968;5.974;2023-05-10T01:33:52;13.00;99.90
52107;DHT22;38105;52.968;5.974;2023-05-10T01:36:30;13.20;99.90
52107;DHT22;38105;52.968;5.974;2023-05-10T01:44:49;13.10;99.90
52107;DHT22;38105;52.968;5.974;2023-05-10T01:47:38;12.50;99.90
52107;DHT22;38105;52.968;5.974;2023-05-10T01:50:06;12.30;99.90
52107;DHT22;38105;52.968;5.974;2023-05-10T01:52:41;12.90;99.90
52107;DHT22;38105;52.968;5.974;2023-05-10T01:55:10;13.00;99.90
52107;DHT22;38105;52.968;5.974;2023-05-10T01:57:37;12.80;99.90
52107;DHT22;38105;52.968;5.974;2023-05-10T02:00:06;12.40;99.90
52107;DHT22;38105;52.968;5.974;2023-05-10T02:02:37;12.50;99.90
52107;DHT22;38105;52.968;5.974;2023-05-10T02:05:05;12.30;99.90
52107;DHT22;38105;52.968;5.974;2023-05-10T02:07:34;12.30;99.90
52107;DHT22;38105;52.968;5.974;2023-05-10T02:10:05;12.30;99.90
52107;DHT22;38105;52.968;5.974;2023-05-10T02:12:32;12.40;99.90
52107;DHT22;38105;52.968;5.974;2023-05-10T02:15:01;12.90;99.90
52107;DHT22;38105;52.968;5.974;2023-05-10T02:17:28;12.20;99.90
52107;DHT22;38105;52.968;5.974;2023-05-10T02:19:55;12.20;99.90
52107;DHT22;38105;52.968;5.974;2023-05-10T02:22:22;12.20;99.90
52107;DHT22;38105;52.968;5.974;2023-05-10T02:24:49;12.60;99.90
52107;DHT22;38105;52.968;5.974;2023-05-10T02:27:16;12.40;99.90
52107;DHT22;38105;52.968;5.974;2023-05-10T02:29:43;12.60;99.90
52107;DHT22;38105;52.968;5.974;2023-05-10T02:32:10;12.50;99.90
52107;DHT22;38105;52.968;5.974;2023-05-10T02:34:37;12.50;99.90
52107;DHT22;38105;52.968;5.974;2023-05-10T02:37:03;12.90;99.90
52107;DHT22;38105;52.968;5.974;2023-05-10T02:39:31;12.50;99.90
52107;DHT22;38105;52.968;5.974;2023-05-10T02:41:58;12.30;99.90
52107;DHT22;38105;52.968;5.974;2023-05-10T02:44:25;12.50;99.90
52107;DHT22;38105;52.968;5.974;2023-05-10T02:46:52;13.00;99.90
52107;DHT22;38105;52.968;5.974;2023-05-10T02:49:21;12.90;99.90
52107;DHT22;38105;52.968;5.974;2023-05-10T02:51:51;12.50;99.90
52107;DHT22;38105;52.968;5.974;2023-05-10T02:54:24;12.40;99.90
52107;DHT22;38105;52.968;5.974;2023-05-10T02:56:57;12.90;99.90
52107;DHT22;38105;52.968;5.974;2023-05-10T02:59:23;12.30;99.90
52107;DHT22;38105;52.968;5.974;2023-05-10T03:01:49;12.30;99.90
52107;DHT22;38105;52.968;5.974;2023-05-10T03:04:14;12.80;99.90
52107;DHT22;38105;52.968;5.974;2023-05-10T03:06:41;12.70;99.90
52107;DHT22;38105;52.968;5.974;2023-05-10T03:09:07;12.80;99.90
52107;DHT22;38105;52.968;5.974;2023-05-10T03:12:00;12.30;99.90
52107;DHT22;38105;52.968;5.974;2023-05-10T03:14:57;12.70;99.90
52107;DHT22;38105;52.968;5.974;2023-05-10T03:20:36;12.30;99.90
52107;DHT22;38105;52.968;5.974;2023-05-10T03:23:23;12.60;99.90
52107;DHT22;38105;52.968;5.974;2023-05-10T03:25:52;12.30;99.90
52107;DHT22;38105;52.968;5.974;2023-05-10T03:28:18;13.00;99.90
52107;DHT22;38105;52.968;5.974;2023-05-10T03:30:46;12.50;99.90
52107;DHT22;38105;52.968;5.974;2023-05-10T03:33:12;12.70;99.90
52107;DHT22;38105;52.968;5.974;2023-05-10T03:35:38;12.30;99.90
52107;DHT22;38105;52.968;5.974;2023-05-10T03:38:04;12.90;99.90
52107;DHT22;38105;52.968;5.974;2023-05-10T03:40:29;12.90;99.90
52107;DHT22;38105;52.968;5.974;2023-05-10T03:42:57;13.10;99.90
52107;DHT22;38105;52.968;5.974;2023-05-10T03:45:23;12.30;99.90
52107;DHT22;38105;52.968;5.974;2023-05-10T03:47:49;12.40;99.90
52107;DHT22;38105;52.968;5.974;2023-05-10T03:50:15;12.40;99.90
52107;DHT22;38105;52.968;5.974;2023-05-10T03:52:40;13.00;99.90
52107;DHT22;38105;52.968;5.974;2023-05-10T03:55:06;12.40;99.90
52107;DHT22;38105;52.968;5.974;2023-05-10T03:57:33;12.60;99.90
52107;DHT22;38105;52.968;5.974;2023-05-10T03:59:59;12.40;99.90
52107;DHT22;38105;52.968;5.974;2023-05-10T04:02:25;12.30;99.90
52107;DHT22;38105;52.968;5.974;2023-05-10T04:04:50;13.10;99.90
52107;DHT22;38105;52.968;5.974;2023-05-10T04:07:16;12.60;99.90
52107;DHT22;38105;52.968;5.974;2023-05-10T04:09:42;12.30;99.90
52107;DHT22;38105;52.968;5.974;2023-05-10T04:12:07;12.60;99.90
52107;DHT22;38105;52.968;5.974;2023-05-10T04:14:33;12.40;99.90
52107;DHT22;38105;52.968;5.974;2023-05-10T04:16:59;13.10;99.90
52107;DHT22;38105;52.968;5.974;2023-05-10T04:19:31;13.00;99.90
52107;DHT22;38105;52.968;5.974;2023-05-10T04:21:57;12.60;99.90
52107;DHT22;38105;52.968;5.974;2023-05-10T04:24:23;13.00;99.90
52107;DHT22;38105;52.968;5.974;2023-05-10T04:26:49;12.30;99.90
52107;DHT22;38105;52.968;5.974;2023-05-10T04:29:15;13.00;99.90
52107;DHT22;38105;52.968;5.974;2023-05-10T04:31:41;12.80;99.90
52107;DHT22;38105;52.968;5.974;2023-05-10T04:34:06;12.90;99.90
52107;DHT22;38105;52.968;5.974;2023-05-10T04:36:32;12.40;99.90
52107;DHT22;38105;52.968;5.974;2023-05-10T04:39:00;12.40;99.90
52107;DHT22;38105;52.968;5.974;2023-05-10T04:41:26;12.20;99.90
52107;DHT22;38105;52.968;5.974;2023-05-10T04:43:52;12.60;99.90
52107;DHT22;38105;52.968;5.974;2023-05-10T04:46:17;12.30;99.90
52107;DHT22;38105;52.968;5.974;2023-05-10T04:48:43;12.80;99.90
52107;DHT22;38105;52.968;5.974;2023-05-10T04:51:08;12.30;99.90
52107;DHT22;38105;52.968;5.974;2023-05-10T04:53:34;12.70;99.90
52107;DHT22;38105;52.968;5.974;2023-05-10T04:56:00;12.40;99.90
52107;DHT22;38105;52.968;5.974;2023-05-10T04:58:25;13.00;99.90
52107;DHT22;38105;52.968;5.974;2023-05-10T05:00:51;12.80;99.90
52107;DHT22;38105;52.968;5.974;2023-05-10T05:03:17;13.00;99.90
52107;DHT22;38105;52.968;5.974;2023-05-10T05:05:43;13.00;99.90
52107;DHT22;38105;52.968;5.974;2023-05-10T05:08:09;12.20;99.90
52107;DHT22;38105;52.968;5.974;2023-05-10T05:10:35;12.50;99.90
52107;DHT22;38105;52.968;5.974;2023-05-10T05:13:01;12.80;99.90
52107;DHT22;38105;52.968;5.974;2023-05-10T05:15:26;12.40;99.90
52107;DHT22;38105;52.968;5.974;2023-05-10T05:17:52;12.50;99.90
52107;DHT22;38105;52.968;5.974;2023-05-10T05:20:18;13.00;99.90
52107;DHT22;38105;52.968;5.974;2023-05-10T05:22:44;13.20;99.90
52107;DHT22;38105;52.968;5.974;2023-05-10T05:25:10;13.00;99.90
52107;DHT22;38105;52.968;5.974;2023-05-10T05:27:37;12.70;99.90
52107;DHT22;38105;52.968;5.974;2023-05-10T05:30:02;12.60;99.90
52107;DHT22;38105;52.968;5.974;2023-05-10T05:32:29;12.40;99.90
52107;DHT22;38105;52.968;5.974;2023-05-10T05:34:55;12.80;99.90
52107;DHT22;38105;52.968;5.974;2023-05-10T05:37:21;12.50;99.90
52107;DHT22;38105;52.968;5.974;2023-05-10T05:39:48;12.70;99.90
52107;DHT22;38105;52.968;5.974;2023-05-10T05:42:13;12.30;99.90
52107;DHT22;38105;52.968;5.974;2023-05-10T05:44:40;13.00;99.90
52107;DHT22;38105;52.968;5.974;2023-05-10T05:47:06;13.00;99.90
52107;DHT22;38105;52.968;5.974;2023-05-10T05:49:32;12.60;99.90
52107;DHT22;38105;52.968;5.974;2023-05-10T05:52:02;12.30;99.90
52107;DHT22;38105;52.968;5.974;2023-05-10T05:54:28;13.10;99.90
52107;DHT22;38105;52.968;5.974;2023-05-10T05:56:55;13.00;99.90
52107;DHT22;38105;52.968;5.974;2023-05-10T05:59:21;12.30;99.90
52107;DHT22;38105;52.968;5.974;2023-05-10T06:01:47;12.90;99.90
52107;DHT22;38105;52.968;5.974;2023-05-10T06:04:12;12.40;99.90
52107;DHT22;38105;52.968;5.974;2023-05-10T06:06:38;12.70;99.90
52107;DHT22;38105;52.968;5.974;2023-05-10T06:09:04;12.50;99.90
52107;DHT22;38105;52.968;5.974;2023-05-10T06:11:29;13.00;99.90
52107;DHT22;38105;52.968;5.974;2023-05-10T06:13:58;12.50;99.90
52107;DHT22;38105;52.968;5.974;2023-05-10T06:16:23;12.50;99.90
52107;DHT22;38105;52.968;5.974;2023-05-10T06:18:49;12.50;99.90
52107;DHT22;38105;52.968;5.974;2023-05-10T06:21:15;12.50;99.90
52107;DHT22;38105;52.968;5.974;2023-05-10T06:23:41;13.10;99.90
52107;DHT22;38105;52.968;5.974;2023-05-10T06:26:07;13.10;99.90
52107;DHT22;38105;52.968;5.974;2023-05-10T06:28:33;13.10;99.90
52107;DHT22;38105;52.968;5.974;2023-05-10T06:30:59;13.20;99.90
52107;DHT22;38105;52.968;5.974;2023-05-10T06:33:25;13.10;99.90
52107;DHT22;38105;52.968;5.974;2023-05-10T06:35:51;12.70;99.90
52107;DHT22;38105;52.968;5.974;2023-05-10T06:38:17;12.60;99.90
52107;DHT22;38105;52.968;5.974;2023-05-10T06:40:43;13.00;99.90
52107;DHT22;38105;52.968;5.974;2023-05-10T06:43:09;13.00;99.90
52107;DHT22;38105;52.968;5.974;2023-05-10T06:45:35;13.20;99.90
52107;DHT22;38105;52.968;5.974;2023-05-10T06:48:01;13.20;99.90
52107;DHT22;38105;52.968;5.974;2023-05-10T06:50:26;12.60;99.90
52107;DHT22;38105;52.968;5.974;2023-05-10T06:52:52;12.60;99.90
52107;DHT22;38105;52.968;5.974;2023-05-10T06:55:18;12.80;99.90
52107;DHT22;38105;52.968;5.974;2023-05-10T06:57:43;13.10;99.90
52107;DHT22;38105;52.968;5.974;2023-05-10T07:00:09;12.80;99.90
52107;DHT22;38105;52.968;5.974;2023-05-10T07:02:35;13.00;99.90
52107;DHT22;38105;52.968;5.974;2023-05-10T07:05:01;13.50;99.90
52107;DHT22;38105;52.968;5.974;2023-05-10T07:07:27;13.20;99.90
52107;DHT22;38105;52.968;5.974;2023-05-10T07:09:53;13.50;99.90
52107;DHT22;38105;52.968;5.974;2023-05-10T07:12:19;13.10;99.90
52107;DHT22;38105;52.968;5.974;2023-05-10T07:14:45;13.40;99.90
52107;DHT22;38105;52.968;5.974;2023-05-10T07:17:11;13.20;99.90
52107;DHT22;38105;52.968;5.974;2023-05-10T07:19:36;13.70;99.90
52107;DHT22;38105;52.968;5.974;2023-05-10T07:22:02;13.20;99.90
52107;DHT22;38105;52.968;5.974;2023-05-10T07:24:28;13.70;99.90
52107;DHT22;38105;52.968;5.974;2023-05-10T07:26:53;13.70;99.90
52107;DHT22;38105;52.968;5.974;2023-05-10T07:29:19;13.40;99.90
52107;DHT22;38105;52.968;5.974;2023-05-10T07:31:45;13.30;99.90
52107;DHT22;38105;52.968;5.974;2023-05-10T07:34:10;13.30;99.90
52107;DHT22;38105;52.968;5.974;2023-05-10T07:36:36;13.70;99.90
52107;DHT22;38105;52.968;5.974;2023-05-10T07:39:02;13.60;99.90
52107;DHT22;38105;52.968;5.974;2023-05-10T07:41:27;13.20;99.90
52107;DHT22;38105;52.968;5.974;2023-05-10T07:43:53;12.90;99.90
52107;DHT22;38105;52.968;5.974;2023-05-10T07:46:19;13.10;99.90
52107;DHT22;38105;52.968;5.974;2023-05-10T07:48:47;13.20;99.90
52107;DHT22;38105;52.968;5.974;2023-05-10T07:51:13;13.10;99.90
52107;DHT22;38105;52.968;5.974;2023-05-10T07:53:38;13.00;99.90
52107;DHT22;38105;52.968;5.974;2023-05-10T07:56:24;13.40;99.90
52107;DHT22;38105;52.968;5.974;2023-05-10T07:58:51;13.40;99.90
52107;DHT22;38105;52.968;5.974;2023-05-10T08:01:17;13.40;99.90
52107;DHT22;38105;52.968;5.974;2023-05-10T08:03:43;13.20;99.90
52107;DHT22;38105;52.968;5.974;2023-05-10T08:06:09;13.10;99.90
52107;DHT22;38105;52.968;5.974;2023-05-10T08:08:34;13.40;99.90
52107;DHT22;38105;52.968;5.974;2023-05-10T08:11:00;13.00;99.90
52107;DHT22;38105;52.968;5.974;2023-05-10T08:13:26;13.00;99.90
52107;DHT22;38105;52.968;5.974;2023-05-10T08:15:52;13.10;99.90
52107;DHT22;38105;52.968;5.974;2023-05-10T08:18:19;13.10;99.90
52107;DHT22;38105;52.968;5.974;2023-05-10T08:20:44;13.10;99.90
52107;DHT22;38105;52.968;5.974;2023-05-10T08:23:12;13.50;99.90
52107;DHT22;38105;52.968;5.974;2023-05-10T08:25:38;13.30;99.90
52107;DHT22;38105;52.968;5.974;2023-05-10T08:28:04;13.90;99.90
52107;DHT22;38105;52.968;5.974;2023-05-10T08:30:30;13.60;99.90
52107;DHT22;38105;52.968;5.974;2023-05-10T08:32:55;13.80;99.90
52107;DHT22;38105;52.968;5.974;2023-05-10T08:35:21;14.30;99.90
52107;DHT22;38105;52.968;5.974;2023-05-10T08:37:47;14.10;99.90
52107;DHT22;38105;52.968;5.974;2023-05-10T08:40:13;14.10;99.90
52107;DHT22;38105;52.968;5.974;2023-05-10T08:42:43;14.20;99.90
52107;DHT22;38105;52.968;5.974;2023-05-10T08:45:12;14.40;99.90
52107;DHT22;38105;52.968;5.974;2023-05-10T08:47:39;14.60;99.90
52107;DHT22;38105;52.968;5.974;2023-05-10T08:50:05;15.00;99.90
52107;DHT22;38105;52.968;5.974;2023-05-10T08:52:33;14.80;99.90
52107;DHT22;38105;52.968;5.974;2023-05-10T08:55:02;14.90;99.90
52107;DHT22;38105;52.968;5.974;2023-05-10T08:57:28;15.10;99.90
52107;DHT22;38105;52.968;5.974;2023-05-10T08:59:54;15.20;99.90
52107;DHT22;38105;52.968;5.974;2023-05-10T09:02:20;15.20;99.90
52107;DHT22;38105;52.968;5.974;2023-05-10T09:04:46;15.30;99.90
52107;DHT22;38105;52.968;5.974;2023-05-10T09:07:12;15.50;99.90
52107;DHT22;38105;52.968;5.974;2023-05-10T09:09:38;15.30;99.90
52107;DHT22;38105;52.968;5.974;2023-05-10T09:12:04;15.30;99.90
52107;DHT22;38105;52.968;5.974;2023-05-10T09:14:30;15.20;99.90
52107;DHT22;38105;52.968;5.974;2023-05-10T09:16:56;15.20;99.90
52107;DHT22;38105;52.968;5.974;2023-05-10T09:19:22;15.20;99.90
52107;DHT22;38105;52.968;5.974;2023-05-10T09:21:49;15.30;99.90
52107;DHT22;38105;52.968;5.974;2023-05-10T09:24:15;15.30;99.90
52107;DHT22;38105;52.968;5.974;2023-05-10T09:26:47;15.20;99.90
52107;DHT22;38105;52.968;5.974;2023-05-10T09:29:15;15.40;99.90
52107;DHT22;38105;52.968;5.974;2023-05-10T09:31:49;15.40;99.90
52107;DHT22;38105;52.968;5.974;2023-05-10T09:34:30;15.20;99.90
52107;DHT22;38105;52.968;5.974;2023-05-10T09:36:59;15.30;99.90
52107;DHT22;38105;52.968;5.974;2023-05-10T09:39:36;15.20;99.90
52107;DHT22;38105;52.968;5.974;2023-05-10T09:42:07;15.30;99.90
52107;DHT22;38105;52.968;5.974;2023-05-10T09:44:33;15.30;99.90
52107;DHT22;38105;52.968;5.974;2023-05-10T09:47:00;15.40;99.90
52107;DHT22;38105;52.968;5.974;2023-05-10T09:49:26;15.50;99.90
52107;DHT22;38105;52.968;5.974;2023-05-10T09:52:06;15.40;99.90
52107;DHT22;38105;52.968;5.974;2023-05-10T09:54:33;15.60;99.90
52107;DHT22;38105;52.968;5.974;2023-05-10T09:56:59;15.90;99.90
52107;DHT22;38105;52.968;5.974;2023-05-10T09:59:27;16.00;99.90
52107;DHT22;38105;52.968;5.974;2023-05-10T10:01:56;16.00;99.90
52107;DHT22;38105;52.968;5.974;2023-05-10T10:04:22;15.80;99.90
52107;DHT22;38105;52.968;5.974;2023-05-10T10:06:59;15.90;99.90
52107;DHT22;38105;52.968;5.974;2023-05-10T10:09:25;15.90;99.90
52107;DHT22;38105;52.968;5.974;2023-05-10T10:11:52;15.70;99.90
52107;DHT22;38105;52.968;5.974;2023-05-10T10:14:22;15.60;99.90
52107;DHT22;38105;52.968;5.974;2023-05-10T10:16:49;15.60;99.90
52107;DHT22;38105;52.968;5.974;2023-05-10T10:19:18;15.90;99.90
52107;DHT22;38105;52.968;5.974;2023-05-10T10:21:44;15.80;99.90
52107;DHT22;38105;52.968;5.974;2023-05-10T10:24:09;16.20;99.90
52107;DHT22;38105;52.968;5.974;2023-05-10T10:26:36;16.30;99.90
52107;DHT22;38105;52.968;5.974;2023-05-10T10:31:46;16.10;99.90
52107;DHT22;38105;52.968;5.974;2023-05-10T10:34:29;15.90;99.90
52107;DHT22;38105;52.968;5.974;2023-05-10T10:36:56;15.80;99.90
52107;DHT22;38105;52.968;5.974;2023-05-10T10:39:23;15.70;99.90
52107;DHT22;38105;52.968;5.974;2023-05-10T10:41:59;15.80;99.90
52107;DHT22;38105;52.968;5.974;2023-05-10T10:52:27;15.70;99.90
52107;DHT22;38105;52.968;5.974;2023-05-10T10:55:13;15.60;99.90
52107;DHT22;38105;52.968;5.974;2023-05-10T11:02:52;15.30;99.90
52107;DHT22;38105;52.968;5.974;2023-05-10T11:11:02;14.90;99.90
52107;DHT22;38105;52.968;5.974;2023-05-10T11:16:23;15.10;99.90
52107;DHT22;38105;52.968;5.974;2023-05-10T11:19:12;15.00;99.90
52107;DHT22;38105;52.968;5.974;2023-05-10T11:24:37;15.00;99.90
52107;DHT22;38105;52.968;5.974;2023-05-10T11:27:02;15.20;99.90
52107;DHT22;38105;52.968;5.974;2023-05-10T11:29:28;15.20;99.90
52107;DHT22;38105;52.968;5.974;2023-05-10T11:31:57;15.30;99.90
52107;DHT22;38105;52.968;5.974;2023-05-10T11:34:28;15.20;99.90
52107;DHT22;38105;52.968;5.974;2023-05-10T11:36:56;15.30;99.90
52107;DHT22;38105;52.968;5.974;2023-05-10T11:39:29;15.40;99.90
52107;DHT22;38105;52.968;5.974;2023-05-10T11:41:55;15.40;99.90
52107;DHT22;38105;52.968;5.974;2023-05-10T11:44:21;15.40;99.90
52107;DHT22;38105;52.968;5.974;2023-05-10T11:46:46;15.50;99.90
52107;DHT22;38105;52.968;5.974;2023-05-10T11:49:12;15.60;99.90
52107;DHT22;38105;52.968;5.974;2023-05-10T11:51:38;15.70;99.90
52107;DHT22;38105;52.968;5.974;2023-05-10T11:54:09;15.70;99.90
52107;DHT22;38105;52.968;5.974;2023-05-10T11:56:39;15.80;99.90
52107;DHT22;38105;52.968;5.974;2023-05-10T11:59:05;15.80;99.90
52107;DHT22;38105;52.968;5.974;2023-05-10T12:01:31;15.80;99.90
52107;DHT22;38105;52.968;5.974;2023-05-10T12:03:58;15.80;99.90
52107;DHT22;38105;52.968;5.974;2023-05-10T12:06:30;15.70;99.90
52107;DHT22;38105;52.968;5.974;2023-05-10T12:08:56;15.70;99.90
52107;DHT22;38105;52.968;5.974;2023-05-10T12:11:25;15.80;99.90
52107;DHT22;38105;52.968;5.974;2023-05-10T12:13:51;15.90;99.90
52107;DHT22;38105;52.968;5.974;2023-05-10T12:16:19;15.80;99.90
52107;DHT22;38105;52.968;5.974;2023-05-10T12:18:48;15.90;99.90
52107;DHT22;38105;52.968;5.974;2023-05-10T12:21:15;15.70;99.90
52107;DHT22;38105;52.968;5.974;2023-05-10T12:23:41;15.70;99.90
52107;DHT22;38105;52.968;5.974;2023-05-10T12:26:10;15.70;99.90
52107;DHT22;38105;52.968;5.974;2023-05-10T12:28:37;15.70;99.90
52107;DHT22;38105;52.968;5.974;2023-05-10T12:31:03;15.70;99.90
52107;DHT22;38105;52.968;5.974;2023-05-10T12:33:36;15.80;99.90
52107;DHT22;38105;52.968;5.974;2023-05-10T12:36:04;15.70;99.90
52107;DHT22;38105;52.968;5.974;2023-05-10T12:38:38;15.90;99.90
52107;DHT22;38105;52.968;5.974;2023-05-10T12:41:09;16.10;99.90
52107;DHT22;38105;52.968;5.974;2023-05-10T12:43:36;16.20;99.90
52107;DHT22;38105;52.968;5.974;2023-05-10T12:46:13;16.20;99.90
52107;DHT22;38105;52.968;5.974;2023-05-10T12:48:40;16.20;99.90
52107;DHT22;38105;52.968;5.974;2023-05-10T12:51:06;16.30;99.90
52107;DHT22;38105;52.968;5.974;2023-05-10T12:53:37;16.30;99.90
52107;DHT22;38105;52.968;5.974;2023-05-10T12:56:03;16.20;99.90
52107;DHT22;38105;52.968;5.974;2023-05-10T12:58:29;16.40;99.90
52107;DHT22;38105;52.968;5.974;2023-05-10T13:00:54;16.40;99.90
52107;DHT22;38105;52.968;5.974;2023-05-10T13:03:22;16.50;99.90
52107;DHT22;38105;52.968;5.974;2023-05-10T13:05:47;16.70;99.90
52107;DHT22;38105;52.968;5.974;2023-05-10T13:08:13;16.70;99.90
52107;DHT22;38105;52.968;5.974;2023-05-10T13:10:39;16.50;99.90
52107;DHT22;38105;52.968;5.974;2023-05-10T13:13:05;16.40;99.90
52107;DHT22;38105;52.968;5.974;2023-05-10T13:15:32;16.50;99.90
52107;DHT22;38105;52.968;5.974;2023-05-10T13:17:58;16.30;99.90
52107;DHT22;38105;52.968;5.974;2023-05-10T13:20:24;16.20;99.90
52107;DHT22;38105;52.968;5.974;2023-05-10T13:22:50;16.10;99.90
52107;DHT22;38105;52.968;5.974;2023-05-10T13:25:16;16.00;99.90
52107;DHT22;38105;52.968;5.974;2023-05-10T13:27:42;15.90;99.90
52107;DHT22;38105;52.968;5.974;2023-05-10T13:30:08;16.00;99.90
52107;DHT22;38105;52.968;5.974;2023-05-10T13:32:35;16.00;99.90
52107;DHT22;38105;52.968;5.974;2023-05-10T13:35:01;16.00;99.90
52107;DHT22;38105;52.968;5.974;2023-05-10T13:37:29;16.00;99.90
52107;DHT22;38105;52.968;5.974;2023-05-10T13:39:55;16.10;99.90
52107;DHT22;38105;52.968;5.974;2023-05-10T13:42:22;16.20;99.90
52107;DHT22;38105;52.968;5.974;2023-05-10T13:44:48;16.50;99.90
52107;DHT22;38105;52.968;5.974;2023-05-10T13:47:14;16.60;99.90
52107;DHT22;38105;52.968;5.974;2023-05-10T13:49:40;16.80;99.90
52107;DHT22;38105;52.968;5.974;2023-05-10T13:52:05;17.00;99.90
52107;DHT22;38105;52.968;5.974;2023-05-10T13:54:38;17.20;99.90
52107;DHT22;38105;52.968;5.974;2023-05-10T13:57:04;17.30;99.90
52107;DHT22;38105;52.968;5.974;2023-05-10T13:59:30;17.40;99.90
52107;DHT22;38105;52.968;5.974;2023-05-10T14:01:59;17.40;99.90
52107;DHT22;38105;52.968;5.974;2023-05-10T14:04:28;17.60;99.90
52107;DHT22;38105;52.968;5.974;2023-05-10T14:06:54;17.50;99.90
52107;DHT22;38105;52.968;5.974;2023-05-10T14:09:20;17.50;99.90
52107;DHT22;38105;52.968;5.974;2023-05-10T14:11:45;17.40;99.90
52107;DHT22;38105;52.968;5.974;2023-05-10T14:14:12;17.30;99.90
52107;DHT22;38105;52.968;5.974;2023-05-10T14:16:42;17.20;99.90
52107;DHT22;38105;52.968;5.974;2023-05-10T14:19:08;17.20;99.90
52107;DHT22;38105;52.968;5.974;2023-05-10T14:21:34;17.10;99.90
52107;DHT22;38105;52.968;5.974;2023-05-10T14:24:00;17.20;99.90
52107;DHT22;38105;52.968;5.974;2023-05-10T14:26:25;17.20;99.90
52107;DHT22;38105;52.968;5.974;2023-05-10T14:28:51;17.20;99.90
52107;DHT22;38105;52.968;5.974;2023-05-10T14:31:17;17.20;99.90
52107;DHT22;38105;52.968;5.974;2023-05-10T14:33:48;17.10;99.90
52107;DHT22;38105;52.968;5.974;2023-05-10T14:36:14;17.10;99.90
52107;DHT22;38105;52.968;5.974;2023-05-10T14:38:40;17.10;99.90
52107;DHT22;38105;52.968;5.974;2023-05-10T14:41:06;16.90;99.90
52107;DHT22;38105;52.968;5.974;2023-05-10T14:43:32;16.80;99.90
52107;DHT22;38105;52.968;5.974;2023-05-10T14:45:58;16.70;99.90
52107;DHT22;38105;52.968;5.974;2023-05-10T14:48:24;16.50;99.90
52107;DHT22;38105;52.968;5.974;2023-05-10T14:50:49;16.50;99.90
52107;DHT22;38105;52.968;5.974;2023-05-10T14:53:16;16.30;99.90
52107;DHT22;38105;52.968;5.974;2023-05-10T14:55:41;16.30;99.90
52107;DHT22;38105;52.968;5.974;2023-05-10T14:58:07;16.20;99.90
52107;DHT22;38105;52.968;5.974;2023-05-10T15:00:33;16.40;99.90
52107;DHT22;38105;52.968;5.974;2023-05-10T15:02:58;16.20;99.90
52107;DHT22;38105;52.968;5.974;2023-05-10T15:05:24;16.20;99.90
52107;DHT22;38105;52.968;5.974;2023-05-10T15:07:50;16.10;99.90
52107;DHT22;38105;52.968;5.974;2023-05-10T15:10:17;16.10;99.90
52107;DHT22;38105;52.968;5.974;2023-05-10T15:12:43;16.10;99.90
52107;DHT22;38105;52.968;5.974;2023-05-10T15:15:08;16.00;99.90
52107;DHT22;38105;52.968;5.974;2023-05-10T15:17:34;16.00;99.90
52107;DHT22;38105;52.968;5.974;2023-05-10T15:20:00;15.90;99.90
52107;DHT22;38105;52.968;5.974;2023-05-10T15:22:28;15.90;99.90
52107;DHT22;38105;52.968;5.974;2023-05-10T15:24:54;15.80;99.90
52107;DHT22;38105;52.968;5.974;2023-05-10T15:27:20;15.80;99.90
52107;DHT22;38105;52.968;5.974;2023-05-10T15:29:45;15.70;99.90
52107;DHT22;38105;52.968;5.974;2023-05-10T15:32:11;15.80;99.90
52107;DHT22;38105;52.968;5.974;2023-05-10T15:34:37;15.80;99.90
52107;DHT22;38105;52.968;5.974;2023-05-10T15:37:03;15.70;99.90
52107;DHT22;38105;52.968;5.974;2023-05-10T15:39:28;15.70;99.90
52107;DHT22;38105;52.968;5.974;2023-05-10T15:41:54;15.70;99.90
52107;DHT22;38105;52.968;5.974;2023-05-10T15:44:19;15.60;99.90
52107;DHT22;38105;52.968;5.974;2023-05-10T15:46:45;15.50;99.90
52107;DHT22;38105;52.968;5.974;2023-05-10T15:49:11;15.50;99.90
52107;DHT22;38105;52.968;5.974;2023-05-10T15:51:36;15.40;99.90
52107;DHT22;38105;52.968;5.974;2023-05-10T15:54:02;15.40;99.90
52107;DHT22;38105;52.968;5.974;2023-05-10T15:56:28;15.30;99.90
52107;DHT22;38105;52.968;5.974;2023-05-10T15:58:54;15.30;99.90
52107;DHT22;38105;52.968;5.974;2023-05-10T16:01:20;15.30;99.90
52107;DHT22;38105;52.968;5.974;2023-05-10T16:03:46;15.30;99.90
52107;DHT22;38105;52.968;5.974;2023-05-10T16:06:11;15.30;99.90
52107;DHT22;38105;52.968;5.974;2023-05-10T16:08:38;15.20;99.90
52107;DHT22;38105;52.968;5.974;2023-05-10T16:11:03;15.20;99.90
52107;DHT22;38105;52.968;5.974;2023-05-10T16:13:29;15.40;99.90
52107;DHT22;38105;52.968;5.974;2023-05-10T16:15:55;15.40;99.90